Time;durP1;ratioP1;P1;durP2;ratioP2;P2;SDS_P1;SDS_P2;PMS_P1;PMS_P2;Temp;Humidity;BMP_temperature;BMP_pressure;BME280_temperature;BME280_humidity;BME280_pressure;Samples;Min_cycle;Max_cycle;Signal;HPM_P1;HPM_P2
2021/07/21 00:00:31;;;;;;;16.50;13.13;;;21.10;99.90;;;;;;6128777;23;20432;-66
2021/07/21 00:02:57;;;;;;;19.40;13.37;;;21.10;99.90;;;;;;6127384;23;20649;-67
2021/07/21 00:05:25;;;;;;;22.20;13.27;;;21.10;99.90;;;;;;6128784;23;20688;-66
2021/07/21 00:07:52;;;;;;;18.87;12.30;;;21.10;99.90;;;;;;6129056;23;20749;-67
2021/07/21 00:10:20;;;;;;;18.07;12.40;;;21.00;99.90;;;;;;6128692;23;20378;-66
2021/07/21 00:15:34;;;;;;;18.43;12.37;;;20.90;99.90;;;;;;6128715;23;20384;-68
2021/07/21 00:18:14;;;;;;;17.37;12.77;;;20.90;99.90;;;;;;6127306;23;20914;-67
2021/07/21 00:20:40;;;;;;;19.10;12.63;;;20.90;99.90;;;;;;6128643;23;20358;-66
2021/07/21 00:23:06;;;;;;;18.73;13.00;;;20.80;99.90;;;;;;6129115;23;20471;-66
2021/07/21 00:25:32;;;;;;;14.70;12.60;;;20.80;99.90;;;;;;6128638;23;20406;-68
2021/07/21 00:27:57;;;;;;;20.73;13.27;;;20.70;99.90;;;;;;6127115;23;20187;-68
2021/07/21 00:30:23;;;;;;;17.90;13.67;;;20.70;99.90;;;;;;6126906;23;20205;-66
2021/07/21 00:32:49;;;;;;;18.13;13.00;;;20.70;99.90;;;;;;6128545;23;20661;-68
2021/07/21 00:35:17;;;;;;;19.07;12.43;;;20.60;99.90;;;;;;6127038;23;20386;-68
2021/07/21 00:37:43;;;;;;;17.10;11.50;;;20.60;99.90;;;;;;6128836;23;20179;-67
2021/07/21 00:40:11;;;;;;;17.30;11.90;;;20.60;99.90;;;;;;6128316;23;20377;-67
2021/07/21 00:42:37;;;;;;;14.63;11.60;;;20.60;99.90;;;;;;6128578;23;20445;-66
2021/07/21 00:45:04;;;;;;;17.80;11.53;;;20.50;99.90;;;;;;6126848;23;20390;-67
2021/07/21 00:47:29;;;;;;;19.10;12.47;;;20.50;99.90;;;;;;6126599;23;20425;-68
2021/07/21 00:49:55;;;;;;;15.00;11.20;;;20.50;99.90;;;;;;6128391;23;20374;-67
2021/07/21 00:52:21;;;;;;;15.00;11.50;;;20.50;99.90;;;;;;6128690;23;20183;-66
2021/07/21 00:54:47;;;;;;;19.13;11.83;;;20.50;99.90;;;;;;6128366;23;20163;-67
2021/07/21 00:57:13;;;;;;;16.00;11.93;;;20.50;99.90;;;;;;6127448;23;20179;-66
2021/07/21 00:59:39;;;;;;;17.43;12.07;;;20.50;99.90;;;;;;6128401;23;20483;-68
2021/07/21 01:02:05;;;;;;;15.77;12.03;;;20.40;99.90;;;;;;6128269;23;20203;-68
2021/07/21 01:04:32;;;;;;;18.43;11.90;;;20.40;99.90;;;;;;6126612;23;20721;-67
2021/07/21 01:07:01;;;;;;;15.87;12.77;;;20.30;99.90;;;;;;6127907;23;20179;-66
2021/07/21 01:09:28;;;;;;;18.47;11.67;;;20.30;99.90;;;;;;6128147;23;20385;-67
2021/07/21 01:12:02;;;;;;;21.30;12.63;;;20.30;99.90;;;;;;6128438;23;20401;-68
2021/07/21 01:14:36;;;;;;;17.17;12.20;;;20.20;99.90;;;;;;6128131;23;20365;-66
2021/07/21 01:17:05;;;;;;;15.60;10.80;;;20.10;99.90;;;;;;6128223;23;20498;-66
2021/07/21 01:19:46;;;;;;;17.03;11.37;;;20.10;99.90;;;;;;6128017;23;20379;-66
2021/07/21 01:22:27;;;;;;;20.20;12.50;;;20.10;99.90;;;;;;6126369;23;20492;-66
2021/07/21 01:25:06;;;;;;;14.60;11.20;;;20.00;99.90;;;;;;6128088;23;20404;-67
2021/07/21 01:27:48;;;;;;;17.67;12.47;;;20.00;99.90;;;;;;6126572;23;20425;-67
2021/07/21 01:30:25;;;;;;;14.70;11.47;;;20.00;99.90;;;;;;6126400;23;20397;-66
2021/07/21 01:33:00;;;;;;;15.70;11.57;;;19.90;99.90;;;;;;6128008;23;20428;-66
2021/07/21 01:35:30;;;;;;;16.50;11.63;;;19.90;99.90;;;;;;6151085;23;20427;-68
2021/07/21 01:38:04;;;;;;;14.60;11.33;;;19.90;99.90;;;;;;6128291;23;20421;-66
2021/07/21 01:40:36;;;;;;;15.03;10.30;;;19.90;99.90;;;;;;6128056;23;20373;-66
2021/07/21 01:43:07;;;;;;;15.17;11.50;;;19.90;99.90;;;;;;6128239;23;20933;-66
2021/07/21 01:45:34;;;;;;;16.67;12.00;;;19.80;99.90;;;;;;6127922;23;20745;-66
2021/07/21 01:48:01;;;;;;;15.57;11.60;;;19.80;99.90;;;;;;6127634;23;20413;-67
2021/07/21 01:50:29;;;;;;;15.63;11.50;;;19.80;99.90;;;;;;6127897;23;20378;-67
2021/07/21 01:52:58;;;;;;;17.00;12.97;;;19.70;99.90;;;;;;6128171;23;20416;-66
2021/07/21 01:55:24;;;;;;;18.83;11.90;;;19.70;99.90;;;;;;6127723;23;20384;-67
2021/07/21 01:57:52;;;;;;;15.70;11.67;;;19.70;99.90;;;;;;6126247;23;20779;-65
2021/07/21 02:00:18;;;;;;;16.63;11.73;;;19.70;99.90;;;;;;6127829;23;20385;-68
2021/07/21 02:02:49;;;;;;;17.83;10.73;;;19.70;99.90;;;;;;6126120;23;20513;-67
2021/07/21 02:05:17;;;;;;;18.03;12.87;;;19.60;99.90;;;;;;6127517;23;20466;-66
2021/07/21 02:07:44;;;;;;;18.03;12.80;;;19.60;99.90;;;;;;6126088;23;20428;-66
2021/07/21 02:10:12;;;;;;;16.80;11.93;;;19.60;99.90;;;;;;6127415;23;20384;-66
2021/07/21 02:12:39;;;;;;;14.33;11.00;;;19.60;99.90;;;;;;6127957;23;20886;-67
2021/07/21 02:15:06;;;;;;;18.73;12.57;;;19.60;99.90;;;;;;6150533;23;20440;-67
2021/07/21 02:17:32;;;;;;;14.60;10.43;;;19.60;99.90;;;;;;6127708;23;20451;-66
2021/07/21 02:19:58;;;;;;;14.83;11.27;;;19.50;99.90;;;;;;6127541;23;20894;-66
2021/07/21 02:22:25;;;;;;;16.40;12.57;;;19.50;99.90;;;;;;6125870;23;20522;-67
2021/07/21 02:24:51;;;;;;;19.13;10.90;;;19.50;99.90;;;;;;6127568;23;20711;-67
2021/07/21 02:27:17;;;;;;;16.53;12.00;;;19.50;99.90;;;;;;6127587;23;20443;-67
2021/07/21 02:29:43;;;;;;;19.97;11.40;;;19.40;99.90;;;;;;6127468;23;20839;-67
2021/07/21 02:32:29;;;;;;;15.27;11.23;;;19.40;99.90;;;;;;6127517;23;20193;-67
2021/07/21 02:34:55;;;;;;;16.63;12.17;;;19.40;99.90;;;;;;6125832;23;20409;-68
2021/07/21 02:37:20;;;;;;;16.60;11.00;;;19.40;99.90;;;;;;6127683;23;20404;-66
2021/07/21 02:39:48;;;;;;;17.13;12.73;;;19.30;99.90;;;;;;6127243;23;20462;-66
2021/07/21 02:42:15;;;;;;;14.90;10.63;;;19.30;99.90;;;;;;6127336;23;20208;-67
2021/07/21 02:44:42;;;;;;;16.23;11.23;;;19.40;99.90;;;;;;6127345;23;20854;-67
2021/07/21 02:47:08;;;;;;;14.37;10.50;;;19.40;99.90;;;;;;6125615;23;20428;-66
2021/07/21 02:49:34;;;;;;;13.27;11.17;;;19.40;99.90;;;;;;6127318;23;20373;-66
2021/07/21 02:52:11;;;;;;;14.53;10.90;;;19.50;99.90;;;;;;6127301;23;20407;-66
2021/07/21 02:54:53;;;;;;;14.50;10.97;;;19.50;99.90;;;;;;6127358;23;20183;-68
2021/07/21 02:57:34;;;;;;;11.93;10.50;;;19.60;99.90;;;;;;6127557;23;20404;-66
2021/07/21 03:00:07;;;;;;;15.90;11.43;;;19.60;99.90;;;;;;6125557;23;20395;-68
2021/07/21 03:02:35;;;;;;;14.30;10.63;;;19.60;99.90;;;;;;6126781;23;20463;-66
2021/07/21 03:05:02;;;;;;;13.90;10.60;;;19.70;99.90;;;;;;6127060;23;20379;-67
2021/07/21 03:07:29;;;;;;;15.63;11.03;;;19.70;99.90;;;;;;6127343;23;20467;-67
2021/07/21 03:09:57;;;;;;;15.30;11.13;;;19.70;99.90;;;;;;6125462;23;20426;-66
2021/07/21 03:12:27;;;;;;;16.07;11.50;;;19.70;99.90;;;;;;6126909;23;20748;-68
2021/07/21 03:14:54;;;;;;;15.07;10.83;;;19.80;99.90;;;;;;6127033;23;20365;-66
2021/07/21 03:17:22;;;;;;;16.23;11.83;;;19.80;99.90;;;;;;6125565;23;20788;-66
2021/07/21 03:19:52;;;;;;;17.37;10.60;;;19.80;99.90;;;;;;6126810;23;20388;-67
2021/07/21 03:22:22;;;;;;;15.60;10.83;;;19.70;99.90;;;;;;6127086;23;20448;-68
2021/07/21 03:24:49;;;;;;;17.10;9.83;;;19.70;99.90;;;;;;6125539;23;20804;-67
2021/07/21 03:27:15;;;;;;;13.13;10.50;;;19.70;99.90;;;;;;6125517;23;20423;-66
2021/07/21 03:29:44;;;;;;;15.20;11.30;;;19.70;99.90;;;;;;6127015;23;20400;-68
2021/07/21 03:32:10;;;;;;;15.13;11.13;;;19.70;99.90;;;;;;6127166;23;20531;-67
2021/07/21 03:34:39;;;;;;;12.50;10.20;;;19.60;99.90;;;;;;6125315;23;20460;-68
2021/07/21 03:37:08;;;;;;;14.93;12.03;;;19.60;99.90;;;;;;6126818;23;20455;-66
2021/07/21 03:39:36;;;;;;;14.77;11.90;;;19.50;99.90;;;;;;6127174;23;20375;-66
2021/07/21 03:42:02;;;;;;;16.40;11.97;;;19.50;99.90;;;;;;6126574;23;20451;-68
2021/07/21 03:44:28;;;;;;;16.90;11.77;;;19.50;99.90;;;;;;6126904;23;20702;-66
2021/07/21 03:46:54;;;;;;;17.10;11.30;;;19.50;99.90;;;;;;6127010;23;20435;-66
2021/07/21 03:49:20;;;;;;;14.60;10.50;;;19.50;99.90;;;;;;6126993;23;20367;-66
2021/07/21 03:51:46;;;;;;;14.17;10.17;;;19.50;99.90;;;;;;6127006;23;20461;-67
2021/07/21 03:54:13;;;;;;;15.30;11.10;;;19.50;99.90;;;;;;6126780;23;20396;-66
2021/07/21 03:56:41;;;;;;;12.80;10.60;;;19.60;99.90;;;;;;6125354;23;20428;-68
2021/07/21 03:59:07;;;;;;;15.03;10.63;;;19.60;99.90;;;;;;6126682;23;20409;-67
2021/07/21 04:01:37;;;;;;;17.00;12.20;;;19.60;99.90;;;;;;6124698;23;20460;-66
2021/07/21 04:04:05;;;;;;;16.90;9.73;;;19.60;99.90;;;;;;6126687;23;20727;-66
2021/07/21 04:06:35;;;;;;;14.70;11.10;;;19.60;99.90;;;;;;6126598;23;20416;-68
2021/07/21 04:09:06;;;;;;;15.37;10.97;;;19.60;99.90;;;;;;6125151;23;20403;-68
2021/07/21 04:11:35;;;;;;;16.13;11.40;;;19.60;99.90;;;;;;6125250;23;20418;-68
2021/07/21 04:14:04;;;;;;;12.70;11.30;;;19.60;99.90;;;;;;6125158;23;20854;-66
2021/07/21 04:16:33;;;;;;;15.40;11.50;;;19.60;99.90;;;;;;6124936;23;20475;-67
2021/07/21 04:18:59;;;;;;;17.87;12.57;;;19.60;99.90;;;;;;6125202;23;20426;-67
2021/07/21 04:21:26;;;;;;;18.23;12.10;;;19.60;99.90;;;;;;6149523;23;20835;-66
2021/07/21 04:23:52;;;;;;;15.17;12.17;;;19.60;99.90;;;;;;6149852;23;20842;-66
2021/07/21 04:26:18;;;;;;;15.30;11.77;;;19.70;99.90;;;;;;6126737;23;20755;-67
2021/07/21 04:28:44;;;;;;;15.77;11.00;;;19.70;99.90;;;;;;6126703;23;20368;-67
2021/07/21 04:31:10;;;;;;;16.37;11.10;;;19.70;99.90;;;;;;6126670;23;21033;-67
2021/07/21 04:33:37;;;;;;;18.13;11.40;;;19.80;99.90;;;;;;6128454;23;20419;-65
2021/07/21 04:36:03;;;;;;;21.93;12.30;;;19.90;99.90;;;;;;6126783;23;20468;-66
2021/07/21 04:38:30;;;;;;;15.10;11.27;;;20.00;99.90;;;;;;6126965;23;20374;-67
2021/07/21 04:40:56;;;;;;;18.53;11.90;;;20.10;99.90;;;;;;6128318;23;20705;-66
2021/07/21 04:43:21;;;;;;;14.37;11.00;;;20.20;99.90;;;;;;6128156;23;20413;-67
2021/07/21 04:45:50;;;;;;;14.70;10.80;;;20.30;99.90;;;;;;6126812;23;20401;-68
2021/07/21 04:48:16;;;;;;;16.90;12.10;;;20.30;99.90;;;;;;6128193;23;20633;-67
2021/07/21 04:50:47;;;;;;;16.40;11.37;;;20.30;99.90;;;;;;6126789;23;20382;-65
2021/07/21 04:53:15;;;;;;;14.33;10.83;;;20.40;99.90;;;;;;6128820;23;20415;-68
2021/07/21 04:55:46;;;;;;;15.07;11.47;;;20.40;99.90;;;;;;6126748;23;20400;-68
2021/07/21 04:58:12;;;;;;;18.43;11.37;;;20.50;99.90;;;;;;6128785;23;20496;-65
2021/07/21 05:00:38;;;;;;;16.00;12.20;;;20.60;99.90;;;;;;6128333;23;20856;-67
2021/07/21 05:03:06;;;;;;;12.60;11.07;;;20.60;99.90;;;;;;6128323;23;20207;-67
2021/07/21 05:05:38;;;;;;;14.00;10.90;;;20.60;99.90;;;;;;6124177;23;20386;-67
2021/07/21 05:08:05;;;;;;;17.03;12.40;;;20.60;99.90;;;;;;6126261;23;20477;-65
2021/07/21 05:10:31;;;;;;;29.90;21.43;;;20.60;99.90;;;;;;6128160;23;20401;-66
2021/07/21 05:12:57;;;;;;;20.63;12.87;;;20.60;99.90;;;;;;6126634;23;20511;-68
2021/07/21 05:15:23;;;;;;;14.40;11.77;;;20.60;99.90;;;;;;6127660;23;20377;-66
2021/07/21 05:17:49;;;;;;;15.43;11.27;;;20.70;99.90;;;;;;6126930;23;20918;-66
2021/07/21 05:20:14;;;;;;;14.20;10.63;;;20.70;99.90;;;;;;6128010;23;20211;-66
2021/07/21 05:22:47;;;;;;;15.10;10.77;;;20.60;99.90;;;;;;6128342;23;20213;-66
2021/07/21 05:25:14;;;;;;;13.33;10.73;;;20.60;99.90;;;;;;6127547;23;20144;-68
2021/07/21 05:27:40;;;;;;;14.20;11.53;;;20.60;99.90;;;;;;6127933;23;20429;-68
2021/07/21 05:30:07;;;;;;;14.77;11.03;;;20.60;99.90;;;;;;6126423;23;20389;-68
2021/07/21 05:32:32;;;;;;;16.33;11.77;;;20.60;99.90;;;;;;6127819;23;20183;-67
2021/07/21 05:34:58;;;;;;;15.27;12.00;;;20.60;99.90;;;;;;6127975;23;20394;-66
2021/07/21 05:37:24;;;;;;;14.70;11.00;;;20.60;99.90;;;;;;6128258;23;20672;-66
2021/07/21 05:39:49;;;;;;;16.80;11.97;;;20.70;99.90;;;;;;6127946;23;20548;-67
2021/07/21 05:42:15;;;;;;;16.40;11.17;;;20.70;99.90;;;;;;6126193;23;20208;-67
2021/07/21 05:44:41;;;;;;;14.60;11.20;;;20.70;99.90;;;;;;6125986;23;20151;-66
2021/07/21 05:47:06;;;;;;;18.27;13.03;;;20.60;99.90;;;;;;6127730;23;20179;-69
2021/07/21 05:49:32;;;;;;;58.90;34.97;;;20.60;99.90;;;;;;6124729;23;20203;-67
2021/07/21 05:51:57;;;;;;;21.67;15.67;;;20.60;99.90;;;;;;6123667;23;20188;-69
2021/07/21 05:54:23;;;;;;;15.77;11.60;;;20.60;99.90;;;;;;6125543;23;20161;-68
2021/07/21 05:56:49;;;;;;;17.80;11.27;;;20.80;99.90;;;;;;6145542;23;20188;-66
2021/07/21 05:59:15;;;;;;;15.03;11.10;;;20.80;99.90;;;;;;6121102;23;20548;-67
2021/07/21 06:01:40;;;;;;;13.50;10.57;;;20.80;99.90;;;;;;6119629;23;20467;-66
2021/07/21 06:04:06;;;;;;;15.40;11.20;;;20.80;99.90;;;;;;6123232;23;20156;-67
2021/07/21 06:06:33;;;;;;;19.10;11.73;;;20.90;99.90;;;;;;6124459;23;20229;-68
2021/07/21 06:08:58;;;;;;;16.60;11.73;;;20.90;99.90;;;;;;6126191;23;20199;-66
2021/07/21 06:11:24;;;;;;;14.90;12.03;;;20.90;99.90;;;;;;6125538;23;20417;-67
2021/07/21 06:13:51;;;;;;;15.90;11.13;;;21.00;99.90;;;;;;6126118;23;20155;-66
2021/07/21 06:16:16;;;;;;;16.07;11.43;;;21.00;99.90;;;;;;6123378;23;20719;-66
2021/07/21 06:18:42;;;;;;;13.77;10.50;;;21.10;99.90;;;;;;6125475;23;20383;-67
2021/07/21 06:21:08;;;;;;;15.43;11.97;;;21.10;99.90;;;;;;6121798;23;20665;-66
2021/07/21 06:23:34;;;;;;;15.33;11.90;;;21.20;99.90;;;;;;6121752;23;20504;-68
2021/07/21 06:26:00;;;;;;;14.60;10.77;;;21.20;99.90;;;;;;6119594;23;20378;-66
2021/07/21 06:28:26;;;;;;;15.23;11.77;;;21.30;99.90;;;;;;6120859;23;20187;-68
2021/07/21 06:30:52;;;;;;;13.70;11.50;;;21.40;99.90;;;;;;6119533;23;20386;-67
2021/07/21 06:33:18;;;;;;;16.30;11.87;;;21.50;99.90;;;;;;6120914;23;20496;-67
2021/07/21 06:35:47;;;;;;;14.57;11.33;;;21.60;99.90;;;;;;6121173;23;20187;-68
2021/07/21 06:38:14;;;;;;;16.20;11.10;;;21.70;99.90;;;;;;6120893;23;20805;-68
2021/07/21 06:40:41;;;;;;;12.07;10.00;;;21.80;99.90;;;;;;6122299;23;20469;-68
2021/07/21 06:43:07;;;;;;;13.43;10.20;;;21.90;99.90;;;;;;6122875;23;20442;-68
2021/07/21 06:45:32;;;;;;;15.20;10.63;;;21.90;99.90;;;;;;6147971;23;20390;-68
2021/07/21 06:47:58;;;;;;;13.50;9.97;;;22.00;99.90;;;;;;6124974;23;20465;-66
2021/07/21 06:50:24;;;;;;;17.00;11.50;;;22.00;99.90;;;;;;6125540;23;20462;-67
2021/07/21 06:52:49;;;;;;;13.10;10.07;;;22.10;99.90;;;;;;6125762;23;20469;-66
2021/07/21 06:55:15;;;;;;;15.03;11.07;;;22.20;99.90;;;;;;6126485;23;20667;-67
2021/07/21 06:57:41;;;;;;;15.20;10.30;;;22.20;99.90;;;;;;6126843;23;20182;-68
2021/07/21 07:00:08;;;;;;;14.13;10.37;;;22.30;99.90;;;;;;6126443;23;20203;-66
2021/07/21 07:02:34;;;;;;;16.40;10.50;;;22.30;99.90;;;;;;6126036;23;20205;-69
2021/07/21 07:04:59;;;;;;;12.90;10.37;;;22.40;99.90;;;;;;6124943;23;20863;-69
2021/07/21 07:07:25;;;;;;;11.70;9.67;;;22.50;99.90;;;;;;6125296;23;20429;-68
2021/07/21 07:09:51;;;;;;;13.97;10.37;;;22.50;99.90;;;;;;6127056;23;20156;-66
2021/07/21 07:12:17;;;;;;;15.33;10.17;;;22.60;99.90;;;;;;6126298;23;20182;-67
2021/07/21 07:14:42;;;;;;;10.97;9.43;;;22.70;99.90;;;;;;6125567;23;20445;-66
2021/07/21 07:17:09;;;;;;;13.10;10.07;;;22.70;99.90;;;;;;6122507;23;20493;-68
2021/07/21 07:19:34;;;;;;;14.60;10.60;;;22.80;99.90;;;;;;6124446;23;20200;-67
2021/07/21 07:22:00;;;;;;;12.33;9.73;;;22.80;99.90;;;;;;6123433;23;20450;-68
2021/07/21 07:24:27;;;;;;;15.00;10.00;;;22.80;99.90;;;;;;6118620;23;20543;-67
2021/07/21 07:26:53;;;;;;;12.73;9.77;;;22.80;99.90;;;;;;6119939;23;20172;-69
2021/07/21 07:29:18;;;;;;;14.50;9.50;;;22.90;99.90;;;;;;6120274;23;20402;-68
2021/07/21 07:31:44;;;;;;;12.97;10.17;;;23.00;99.90;;;;;;6123088;23;20172;-68
2021/07/21 07:34:09;;;;;;;11.83;9.50;;;23.00;99.90;;;;;;6121887;23;20220;-69
2021/07/21 07:36:37;;;;;;;12.63;9.30;;;23.10;99.90;;;;;;6118368;23;20188;-68
2021/07/21 07:39:03;;;;;;;15.40;10.00;;;23.20;99.90;;;;;;6124032;23;20160;-66
2021/07/21 07:41:29;;;;;;;10.23;8.47;;;23.20;99.90;;;;;;6143333;23;20847;-68
2021/07/21 07:43:55;;;;;;;12.73;9.40;;;23.30;99.90;;;;;;6123847;23;20465;-66
2021/07/21 07:46:25;;;;;;;10.67;8.23;;;23.30;99.90;;;;;;6124305;23;20181;-67
2021/07/21 07:48:51;;;;;;;13.80;8.13;;;23.40;99.90;;;;;;6120752;23;20149;-66
2021/07/21 07:51:17;;;;;;;12.70;8.63;;;23.50;99.90;;;;;;6126538;23;20924;-68
2021/07/21 07:53:43;;;;;;;8.50;7.60;;;23.60;99.90;;;;;;6117677;23;20462;-67
2021/07/21 07:56:08;;;;;;;10.90;8.20;;;23.60;99.90;;;;;;6121802;23;20741;-66
2021/07/21 07:58:34;;;;;;;12.40;8.43;;;23.70;99.90;;;;;;6124358;23;20600;-66
2021/07/21 08:01:00;;;;;;;10.00;8.03;;;23.70;99.90;;;;;;6145708;23;20741;-69
2021/07/21 08:03:26;;;;;;;10.97;8.37;;;23.80;99.90;;;;;;6120500;23;20242;-68
2021/07/21 08:05:54;;;;;;;12.90;8.83;;;23.90;99.90;;;;;;6123245;23;20188;-66
2021/07/21 08:08:20;;;;;;;12.43;9.47;;;24.00;99.90;;;;;;6122926;23;20266;-69
2021/07/21 08:10:47;;;;;;;9.80;8.27;;;24.00;99.90;;;;;;6124864;23;20402;-68
2021/07/21 08:13:12;;;;;;;10.93;9.10;;;24.10;99.90;;;;;;6125962;23;20413;-67
2021/07/21 08:15:38;;;;;;;10.57;8.33;;;24.20;99.90;;;;;;6125317;23;20388;-67
2021/07/21 08:18:04;;;;;;;10.13;7.77;;;24.20;99.90;;;;;;6123152;23;20185;-68
2021/07/21 08:20:29;;;;;;;13.23;9.50;;;24.30;99.90;;;;;;6124173;23;20612;-68
2021/07/21 08:22:55;;;;;;;12.57;9.00;;;24.30;99.90;;;;;;6124219;23;20209;-66
2021/07/21 08:25:24;;;;;;;11.43;8.10;;;24.40;99.90;;;;;;6124026;23;20170;-68
2021/07/21 08:27:49;;;;;;;11.43;8.10;;;24.40;99.90;;;;;;6120608;23;20177;-69
2021/07/21 08:30:15;;;;;;;10.37;8.00;;;24.50;99.90;;;;;;6119086;23;20381;-66
2021/07/21 08:32:42;;;;;;;11.70;7.63;;;24.60;99.90;;;;;;6120106;23;20225;-67
2021/07/21 08:35:12;;;;;;;10.43;7.63;;;24.60;99.90;;;;;;6117959;23;20452;-69
2021/07/21 08:37:39;;;;;;;9.70;8.20;;;24.70;99.90;;;;;;6120976;23;20732;-68
2021/07/21 08:40:10;;;;;;;10.97;7.77;;;24.70;99.90;;;;;;6118154;23;20397;-67
2021/07/21 08:42:35;;;;;;;9.47;8.50;;;24.70;99.90;;;;;;6117984;23;20507;-67
2021/07/21 08:45:02;;;;;;;10.47;8.03;;;24.80;99.90;;;;;;6119235;23;20374;-69
2021/07/21 08:47:27;;;;;;;12.70;9.00;;;24.90;99.90;;;;;;6119244;23;20613;-68
2021/07/21 08:49:53;;;;;;;10.60;8.13;;;24.90;99.90;;;;;;6119514;23;20397;-69
2021/07/21 08:52:21;;;;;;;13.40;7.83;;;25.00;99.90;;;;;;6121059;23;20682;-68
2021/07/21 08:54:49;;;;;;;8.37;6.97;;;25.00;99.90;;;;;;6121052;23;20188;-68
2021/07/21 08:57:16;;;;;;;10.17;7.30;;;25.10;99.90;;;;;;6119147;23;20421;-68
2021/07/21 08:59:43;;;;;;;10.70;8.70;;;25.10;99.90;;;;;;6117810;23;20879;-67
2021/07/21 09:02:14;;;;;;;9.97;7.67;;;25.20;99.90;;;;;;6120679;23;20990;-70
2021/07/21 09:04:40;;;;;;;9.53;8.33;;;25.20;99.90;;;;;;6119126;23;20484;-67
2021/07/21 09:07:07;;;;;;;9.00;7.97;;;25.30;99.90;;;;;;6121247;23;20720;-67
2021/07/21 09:09:33;;;;;;;14.00;8.13;;;25.30;99.90;;;;;;6121801;23;20410;-66
2021/07/21 09:12:00;;;;;;;8.83;7.73;;;25.30;99.90;;;;;;6124122;23;20406;-68
2021/07/21 09:14:26;;;;;;;8.53;7.63;;;25.30;99.90;;;;;;6125323;23;20843;-69
2021/07/21 09:17:12;;;;;;;9.57;8.23;;;25.40;99.90;;;;;;6124579;23;20439;-69
2021/07/21 09:19:44;;;;;;;11.63;8.67;;;25.40;99.90;;;;;;6121872;23;20484;-69
2021/07/21 09:22:18;;;;;;;11.37;8.10;;;25.40;99.90;;;;;;6124917;23;20449;-67
2021/07/21 09:25:04;;;;;;;12.10;8.57;;;25.50;99.90;;;;;;6120761;23;20366;-69
2021/07/21 09:27:29;;;;;;;9.57;7.23;;;25.60;99.90;;;;;;6120136;23;20704;-67
2021/07/21 09:29:55;;;;;;;9.70;8.00;;;25.60;99.90;;;;;;6120456;23;20383;-66
2021/07/21 09:32:20;;;;;;;9.27;7.37;;;25.60;99.90;;;;;;6120449;23;20239;-67
2021/07/21 09:34:51;;;;;;;10.27;7.27;;;25.70;99.90;;;;;;6117656;23;20203;-65
2021/07/21 09:37:19;;;;;;;11.53;7.60;;;25.70;99.90;;;;;;6118458;23;20178;-67
2021/07/21 09:39:45;;;;;;;11.60;9.47;;;25.80;99.90;;;;;;6114419;23;20390;-68
2021/07/21 09:42:12;;;;;;;10.40;7.80;;;25.90;99.90;;;;;;6114103;23;20450;-67
2021/07/21 09:44:43;;;;;;;9.20;8.03;;;25.90;99.90;;;;;;6115220;23;20168;-66
2021/07/21 09:47:24;;;;;;;8.03;7.23;;;25.90;99.90;;;;;;6120658;23;20496;-70
2021/07/21 09:50:09;;;;;;;9.30;7.40;;;25.90;99.90;;;;;;6120867;23;20382;-66
2021/07/21 09:52:45;;;;;;;9.53;7.80;;;26.00;99.90;;;;;;6121080;23;20398;-67
2021/07/21 09:55:13;;;;;;;9.47;7.70;;;26.00;99.90;;;;;;6119911;23;20373;-66
2021/07/21 09:57:39;;;;;;;9.30;7.80;;;26.00;99.90;;;;;;6122443;23;20900;-67
2021/07/21 10:00:22;;;;;;;8.90;7.33;;;26.00;99.90;;;;;;6122016;23;20467;-67
2021/07/21 10:02:48;;;;;;;7.53;6.77;;;26.00;99.90;;;;;;6126659;23;20918;-67
2021/07/21 10:05:14;;;;;;;7.97;7.17;;;26.00;99.90;;;;;;6120516;23;20787;-67
2021/07/21 10:07:49;;;;;;;9.90;7.03;;;26.00;99.90;;;;;;6124000;23;20413;-67
2021/07/21 10:10:21;;;;;;;9.00;7.57;;;26.00;99.90;;;;;;6120501;23;20213;-69
2021/07/21 10:13:00;;;;;;;8.37;7.57;;;26.00;99.90;;;;;;6120583;23;20421;-67
2021/07/21 10:15:27;;;;;;;8.70;6.97;;;26.00;99.90;;;;;;6116905;23;20406;-67
2021/07/21 10:18:13;;;;;;;8.90;7.60;;;25.90;99.90;;;;;;6115542;23;20410;-67
2021/07/21 10:20:41;;;;;;;12.07;7.83;;;25.90;99.90;;;;;;6116511;23;20390;-69
2021/07/21 10:23:08;;;;;;;9.80;7.50;;;26.00;99.90;;;;;;6114133;23;20457;-69
2021/07/21 10:25:35;;;;;;;8.00;7.17;;;26.00;99.90;;;;;;6116354;23;20374;-69
2021/07/21 10:28:02;;;;;;;7.90;7.07;;;26.00;99.90;;;;;;6116567;23;20774;-69
2021/07/21 10:30:30;;;;;;;9.13;7.80;;;26.10;99.90;;;;;;6118824;23;20379;-69
2021/07/21 10:32:57;;;;;;;9.83;8.13;;;26.10;99.90;;;;;;6120301;23;20420;-69
2021/07/21 10:35:24;;;;;;;9.60;7.13;;;26.10;99.90;;;;;;6118446;23;20370;-69
2021/07/21 10:37:52;;;;;;;8.80;7.83;;;26.10;99.90;;;;;;6120782;23;20513;-67
2021/07/21 10:40:23;;;;;;;8.53;7.63;;;26.20;99.90;;;;;;6122066;23;20794;-69
2021/07/21 10:42:52;;;;;;;8.53;7.43;;;26.20;99.90;;;;;;6117361;23;20463;-67
2021/07/21 10:45:30;;;;;;;8.10;7.30;;;26.30;99.90;;;;;;6120775;23;20410;-69
2021/07/21 10:51:17;;;;;;;9.80;7.00;;;26.30;99.90;;;;;;6132867;23;20379;-69
2021/07/21 10:59:11;;;;;;;8.07;7.20;;;26.40;99.90;;;;;;6124024;23;20365;-67
2021/07/21 11:01:48;;;;;;;8.17;7.33;;;26.40;99.90;;;;;;6124753;23;20465;-68
2021/07/21 11:04:14;;;;;;;8.60;7.70;;;26.40;99.90;;;;;;6122709;23;20390;-69
2021/07/21 11:06:42;;;;;;;8.10;7.40;;;26.40;99.90;;;;;;6124160;23;20472;-67
2021/07/21 11:09:38;;;;;;;10.30;7.40;;;26.40;99.90;;;;;;6120745;23;20387;-69
2021/07/21 11:12:04;;;;;;;9.10;6.60;;;26.30;99.90;;;;;;6115889;23;20743;-68
2021/07/21 11:14:34;;;;;;;7.53;6.80;;;26.30;99.90;;;;;;6118455;23;20389;-70
2021/07/21 11:17:06;;;;;;;9.30;7.47;;;26.30;99.90;;;;;;6115830;23;20422;-69
2021/07/21 11:19:49;;;;;;;8.67;6.90;;;26.20;99.90;;;;;;6117031;23;20405;-66
2021/07/21 11:22:30;;;;;;;12.17;8.03;;;26.20;99.90;;;;;;6118644;23;20453;-69
2021/07/21 11:25:18;;;;;;;11.53;7.23;;;26.20;99.90;;;;;;6117958;23;20394;-69
2021/07/21 11:27:54;;;;;;;8.50;6.57;;;26.10;99.90;;;;;;6121038;23;20433;-67
2021/07/21 11:30:35;;;;;;;8.30;7.17;;;26.10;99.90;;;;;;6119558;23;20366;-67
2021/07/21 11:33:38;;;;;;;8.23;6.97;;;26.20;99.90;;;;;;6118316;23;20398;-69
2021/07/21 11:36:04;;;;;;;8.17;7.33;;;26.30;99.90;;;;;;6120848;23;20370;-67
2021/07/21 11:38:49;;;;;;;6.47;5.80;;;26.40;99.90;;;;;;6118072;23;20871;-69
2021/07/21 11:41:55;;;;;;;8.27;7.27;;;26.40;99.90;;;;;;6116940;23;20465;-67
2021/07/21 11:44:30;;;;;;;9.17;7.77;;;26.50;99.90;;;;;;6116153;23;20433;-68
2021/07/21 11:46:57;;;;;;;8.53;6.97;;;26.60;99.90;;;;;;6117530;23;20460;-66
2021/07/21 11:49:26;;;;;;;8.37;6.43;;;26.60;99.90;;;;;;6119685;23;20711;-65
2021/07/21 11:51:57;;;;;;;8.97;7.03;;;26.60;99.90;;;;;;6122682;23;20463;-66
2021/07/21 11:54:37;;;;;;;7.70;6.90;;;26.60;99.90;;;;;;6121240;23;20362;-68
2021/07/21 11:57:07;;;;;;;8.57;6.93;;;26.60;99.90;;;;;;6122602;23;20418;-65
2021/07/21 11:59:35;;;;;;;8.17;6.83;;;26.60;99.90;;;;;;6124532;23;20856;-67
2021/07/21 12:02:11;;;;;;;10.10;6.70;;;26.60;99.90;;;;;;6126480;23;20875;-67
2021/07/21 12:04:39;;;;;;;7.40;6.30;;;26.60;99.90;;;;;;6124857;23;20708;-65
2021/07/21 12:07:05;;;;;;;7.50;6.80;;;26.50;99.90;;;;;;6121389;23;20430;-66
2021/07/21 12:09:36;;;;;;;8.87;6.03;;;26.50;99.90;;;;;;6121580;23;20437;-66
2021/07/21 12:12:05;;;;;;;7.17;6.20;;;26.50;99.90;;;;;;6121712;23;20465;-68
2021/07/21 12:14:31;;;;;;;7.77;6.10;;;26.50;99.90;;;;;;6124979;23;20441;-66
2021/07/21 12:17:12;;;;;;;7.10;6.40;;;26.50;99.90;;;;;;6123717;23;20750;-66
2021/07/21 12:19:43;;;;;;;7.07;6.27;;;26.60;99.90;;;;;;6123144;23;20394;-69
2021/07/21 12:22:12;;;;;;;7.23;6.47;;;26.60;99.90;;;;;;6121454;23;20568;-66
2021/07/21 12:24:40;;;;;;;7.80;6.23;;;26.60;99.90;;;;;;6120782;23;20722;-66
2021/07/21 12:27:07;;;;;;;8.07;7.03;;;26.70;99.90;;;;;;6122258;23;20409;-68
2021/07/21 12:29:33;;;;;;;6.23;5.63;;;26.80;99.90;;;;;;6122040;23;20793;-68
2021/07/21 12:32:03;;;;;;;8.10;6.43;;;26.80;99.90;;;;;;6126866;23;20424;-68
2021/07/21 12:34:29;;;;;;;6.83;6.13;;;26.80;99.90;;;;;;6122252;23;20500;-66
2021/07/21 12:36:54;;;;;;;7.60;6.17;;;26.80;99.90;;;;;;6124200;23;20899;-66
2021/07/21 12:39:26;;;;;;;7.43;6.10;;;26.80;99.90;;;;;;6121549;23;20172;-66
2021/07/21 12:41:53;;;;;;;8.20;6.00;;;26.80;99.90;;;;;;6120627;23;20547;-66
2021/07/21 12:44:26;;;;;;;7.83;6.57;;;26.80;99.90;;;;;;6121017;23;20375;-68
2021/07/21 12:47:09;;;;;;;6.90;6.13;;;26.90;99.90;;;;;;6121152;23;20418;-68
2021/07/21 12:49:35;;;;;;;7.90;6.20;;;26.90;99.90;;;;;;6121529;23;20857;-66
2021/07/21 12:52:01;;;;;;;8.33;7.13;;;26.80;99.90;;;;;;6147909;23;20424;-67